Time;durP1;ratioP1;P1;durP2;ratioP2;P2;SDS_P1;SDS_P2;PMS_P1;PMS_P2;Temp;Humidity;BMP_temperature;BMP_pressure;BME280_temperature;BME280_humidity;BME280_pressure;Samples;Min_cycle;Max_cycle;Signal;HPM_P1;HPM_P2
2022/03/25 00:00:40;;;;;;;63.65;34.05;;;5.10;99.90;;;;;;5042193;28;20060;-78
2022/03/25 00:03:07;;;;;;;65.18;35.80;;;5.10;99.90;;;;;;5042933;28;20022;-75
2022/03/25 00:05:32;;;;;;;58.35;34.55;;;5.00;99.90;;;;;;5039134;28;20032;-76
2022/03/25 00:07:58;;;;;;;66.32;35.67;;;5.00;99.90;;;;;;5036556;28;20026;-74
2022/03/25 00:10:24;;;;;;;61.90;34.85;;;5.00;99.90;;;;;;5039121;28;20053;-77
2022/03/25 00:12:49;;;;;;;64.55;34.75;;;4.90;99.90;;;;;;5037077;28;20527;-75
2022/03/25 00:15:16;;;;;;;61.63;33.97;;;4.80;99.90;;;;;;5041844;28;20022;-76
2022/03/25 00:17:41;;;;;;;58.95;33.25;;;4.80;99.90;;;;;;5039008;28;20105;-75
2022/03/25 00:20:08;;;;;;;57.53;33.28;;;4.70;99.90;;;;;;5040574;28;20060;-78
2022/03/25 00:22:34;;;;;;;61.88;35.13;;;4.60;99.90;;;;;;5042484;28;20078;-78
2022/03/25 00:24:59;;;;;;;62.58;36.58;;;4.50;99.90;;;;;;5042055;28;20022;-78
2022/03/25 00:27:25;;;;;;;61.38;36.22;;;4.50;99.90;;;;;;5043348;28;20079;-78
2022/03/25 00:29:51;;;;;;;67.97;36.28;;;4.50;99.90;;;;;;5043144;28;20053;-78
2022/03/25 00:32:16;;;;;;;64.93;34.17;;;4.50;99.90;;;;;;5042685;28;20033;-78
2022/03/25 00:34:43;;;;;;;68.00;35.80;;;4.40;99.90;;;;;;5043853;28;20147;-78
2022/03/25 00:37:10;;;;;;;68.40;35.55;;;4.40;99.90;;;;;;5042926;28;20155;-78
2022/03/25 00:39:36;;;;;;;59.03;33.22;;;4.40;99.90;;;;;;5037406;28;20022;-77
2022/03/25 00:42:02;;;;;;;56.55;31.90;;;4.30;99.90;;;;;;5037498;28;20416;-78
2022/03/25 00:44:28;;;;;;;55.60;32.17;;;4.20;99.90;;;;;;5038729;28;20407;-77
2022/03/25 00:46:54;;;;;;;61.28;35.13;;;4.00;99.90;;;;;;5048546;22;20042;-76
2022/03/25 00:49:19;;;;;;;60.50;32.95;;;4.00;99.90;;;;;;5031141;28;20123;-75
2022/03/25 00:51:46;;;;;;;59.63;34.92;;;4.00;99.90;;;;;;5031540;28;20105;-77
2022/03/25 00:54:12;;;;;;;58.55;33.50;;;4.00;99.90;;;;;;5034599;28;20396;-77
2022/03/25 00:56:38;;;;;;;61.88;34.80;;;3.90;99.90;;;;;;5035433;28;20029;-76
2022/03/25 00:59:03;;;;;;;61.08;34.17;;;3.90;99.90;;;;;;5037579;28;20036;-76
2022/03/25 01:01:29;;;;;;;55.45;31.23;;;3.80;99.90;;;;;;5037887;28;20032;-76
2022/03/25 01:03:55;;;;;;;57.13;33.03;;;3.70;99.90;;;;;;5017125;28;20028;-75
2022/03/25 01:06:21;;;;;;;59.38;31.92;;;3.70;99.90;;;;;;5035038;28;20129;-77
2022/03/25 01:08:47;;;;;;;58.45;32.92;;;3.60;99.90;;;;;;5034719;28;20040;-76
2022/03/25 01:11:13;;;;;;;63.60;34.85;;;3.60;99.90;;;;;;5035554;28;20476;-76
2022/03/25 01:13:39;;;;;;;58.58;34.17;;;3.50;99.90;;;;;;5035009;28;20025;-75
2022/03/25 01:16:08;;;;;;;65.78;36.47;;;3.50;99.90;;;;;;5017634;28;20055;-75
2022/03/25 01:18:34;;;;;;;63.03;33.70;;;3.60;99.90;;;;;;5034446;28;20036;-75
2022/03/25 01:21:00;;;;;;;63.28;33.47;;;3.70;99.90;;;;;;5035183;28;20369;-76
2022/03/25 01:23:27;;;;;;;58.45;32.05;;;3.70;99.90;;;;;;5034861;28;20041;-75
2022/03/25 01:25:53;;;;;;;60.45;33.08;;;3.60;99.90;;;;;;5034636;28;20029;-75
2022/03/25 01:28:19;;;;;;;56.58;31.92;;;3.60;99.90;;;;;;5016788;28;20029;-76
2022/03/25 01:30:46;;;;;;;62.35;34.00;;;3.50;99.90;;;;;;5034471;28;20374;-75
2022/03/25 01:33:13;;;;;;;59.45;33.75;;;3.40;99.90;;;;;;5034902;28;20037;-76
2022/03/25 01:35:38;;;;;;;62.08;34.75;;;3.40;99.90;;;;;;5016944;28;20370;-76
2022/03/25 01:38:04;;;;;;;60.10;33.58;;;3.30;99.90;;;;;;5033872;28;20136;-76
2022/03/25 01:40:30;;;;;;;64.35;35.10;;;3.20;99.90;;;;;;5016947;28;20021;-75
2022/03/25 01:42:56;;;;;;;63.53;33.47;;;3.20;99.90;;;;;;5042114;28;20040;-75
2022/03/25 01:45:34;;;;;;;62.33;33.08;;;3.20;99.90;;;;;;5066107;28;20029;-75
2022/03/25 01:48:07;;;;;;;59.03;32.25;;;3.10;99.90;;;;;;5054266;28;20033;-74
2022/03/25 01:50:32;;;;;;;65.00;33.95;;;3.10;99.90;;;;;;5053992;28;20021;-76
2022/03/25 01:52:58;;;;;;;67.80;35.15;;;3.00;99.90;;;;;;5054114;28;20043;-75
2022/03/25 01:55:28;;;;;;;62.35;36.03;;;3.00;99.90;;;;;;5036289;28;20021;-76
2022/03/25 01:57:57;;;;;;;65.68;34.22;;;3.10;99.90;;;;;;5036114;28;20063;-75
2022/03/25 02:00:25;;;;;;;64.00;33.55;;;3.10;99.90;;;;;;5054302;28;20029;-77
2022/03/25 02:02:50;;;;;;;61.55;32.30;;;3.10;99.90;;;;;;5054288;28;20083;-77
2022/03/25 02:05:17;;;;;;;64.68;34.58;;;3.00;99.90;;;;;;5052740;28;20472;-75
2022/03/25 02:07:43;;;;;;;60.53;34.55;;;3.00;99.90;;;;;;5053791;28;20017;-75
2022/03/25 02:10:08;;;;;;;60.08;34.20;;;2.90;99.90;;;;;;5054117;28;20092;-76
2022/03/25 02:12:38;;;;;;;62.22;33.72;;;2.90;99.90;;;;;;5053920;28;20033;-76
2022/03/25 02:15:05;;;;;;;62.08;33.85;;;2.90;99.90;;;;;;5053849;28;20039;-75
2022/03/25 02:17:31;;;;;;;67.10;36.10;;;2.90;99.90;;;;;;5053453;28;20433;-75
2022/03/25 02:19:57;;;;;;;62.78;34.03;;;2.90;99.90;;;;;;5053324;28;20119;-75
2022/03/25 02:22:22;;;;;;;66.90;33.42;;;2.90;99.90;;;;;;5035912;28;20064;-76
2022/03/25 02:24:49;;;;;;;58.40;32.72;;;3.00;99.90;;;;;;5035492;28;20120;-76
2022/03/25 02:27:16;;;;;;;65.55;34.78;;;3.00;99.90;;;;;;5053649;28;20021;-75
2022/03/25 02:29:43;;;;;;;68.53;35.10;;;3.00;99.90;;;;;;5053534;28;20036;-77
2022/03/25 02:32:08;;;;;;;64.07;34.22;;;3.00;99.90;;;;;;5053577;28;20122;-75
2022/03/25 02:34:34;;;;;;;60.75;33.13;;;3.00;99.90;;;;;;5035529;28;20469;-76
2022/03/25 02:37:01;;;;;;;67.55;36.00;;;3.00;99.90;;;;;;5035588;28;20029;-75
2022/03/25 02:39:28;;;;;;;68.20;36.85;;;3.00;99.90;;;;;;5053119;28;20395;-76
2022/03/25 02:41:53;;;;;;;66.65;36.75;;;3.00;99.90;;;;;;5035376;28;20028;-74
2022/03/25 02:44:19;;;;;;;66.60;37.33;;;3.00;99.90;;;;;;5053135;28;20029;-76
2022/03/25 02:46:44;;;;;;;65.18;36.53;;;3.00;99.90;;;;;;5053413;28;20416;-77
2022/03/25 02:49:11;;;;;;;65.30;35.58;;;2.90;99.90;;;;;;5035262;28;20082;-75
2022/03/25 02:51:38;;;;;;;68.88;36.08;;;3.00;99.90;;;;;;5058464;28;20021;-75
2022/03/25 02:54:04;;;;;;;65.35;36.47;;;3.00;99.90;;;;;;5057473;28;20059;-75
2022/03/25 02:56:29;;;;;;;66.88;35.65;;;2.90;99.90;;;;;;5057304;28;20032;-76
2022/03/25 02:58:56;;;;;;;66.55;36.88;;;2.90;99.90;;;;;;5057111;28;20463;-75
2022/03/25 03:01:21;;;;;;;67.72;37.42;;;2.90;99.90;;;;;;5057238;28;20083;-75
2022/03/25 03:03:47;;;;;;;69.18;36.03;;;2.90;99.90;;;;;;5039313;28;20693;-75
2022/03/25 03:06:13;;;;;;;66.97;35.35;;;3.00;99.90;;;;;;5036127;28;20138;-75
2022/03/25 03:08:41;;;;;;;66.40;34.80;;;3.00;99.90;;;;;;5052633;28;20025;-74
2022/03/25 03:11:08;;;;;;;66.68;35.25;;;3.00;99.90;;;;;;5035162;28;20484;-75
2022/03/25 03:13:34;;;;;;;69.20;37.03;;;3.00;99.90;;;;;;5053056;28;20043;-75
2022/03/25 03:16:00;;;;;;;68.70;36.50;;;3.00;99.90;;;;;;5052806;28;20036;-75
2022/03/25 03:18:26;;;;;;;63.03;35.53;;;3.10;99.90;;;;;;5034504;28;20251;-75
2022/03/25 03:20:52;;;;;;;59.00;32.83;;;3.10;99.90;;;;;;5052817;28;20117;-75
2022/03/25 03:23:17;;;;;;;58.83;31.75;;;3.00;99.90;;;;;;5052371;28;20412;-75
2022/03/25 03:25:43;;;;;;;61.13;35.13;;;2.90;99.90;;;;;;5052832;28;20028;-77
2022/03/25 03:28:09;;;;;;;61.05;32.88;;;2.90;99.90;;;;;;5034421;28;20060;-76
2022/03/25 03:30:35;;;;;;;66.55;34.00;;;2.80;99.90;;;;;;5037419;28;20025;-75
2022/03/25 03:33:04;;;;;;;64.13;33.38;;;2.70;99.90;;;;;;5066250;28;20025;-75
2022/03/25 03:35:31;;;;;;;65.72;35.70;;;2.70;99.90;;;;;;5039355;28;20170;-76
2022/03/25 03:37:57;;;;;;;68.88;35.80;;;2.70;99.90;;;;;;5053670;28;20036;-76
2022/03/25 03:40:23;;;;;;;62.58;34.75;;;2.80;99.90;;;;;;5035011;28;20032;-76
2022/03/25 03:42:48;;;;;;;65.57;34.17;;;2.80;99.90;;;;;;5052667;28;20021;-77
2022/03/25 03:45:14;;;;;;;60.33;33.78;;;2.80;99.90;;;;;;5034761;28;20017;-77
2022/03/25 03:47:41;;;;;;;57.80;31.98;;;2.80;99.90;;;;;;5052469;28;20404;-76
2022/03/25 03:50:11;;;;;;;55.83;30.48;;;2.70;99.90;;;;;;5052195;28;20017;-76
2022/03/25 03:52:38;;;;;;;53.95;31.10;;;2.60;99.90;;;;;;5052617;28;20480;-76
2022/03/25 03:55:05;;;;;;;61.25;33.85;;;2.50;99.90;;;;;;5052644;28;20468;-77
2022/03/25 03:57:31;;;;;;;60.30;32.25;;;2.50;99.90;;;;;;5052701;28;20107;-76
2022/03/25 03:59:56;;;;;;;55.63;31.58;;;2.30;99.90;;;;;;5051870;28;20537;-76
2022/03/25 04:02:22;;;;;;;56.25;31.45;;;2.30;99.90;;;;;;5052225;28;20032;-76
2022/03/25 04:04:48;;;;;;;61.40;33.03;;;2.20;99.90;;;;;;5034923;28;20040;-77
2022/03/25 04:07:15;;;;;;;59.22;32.63;;;2.10;99.90;;;;;;5034388;28;20067;-75
2022/03/25 04:09:41;;;;;;;66.13;34.53;;;2.00;99.90;;;;;;5034233;28;20111;-75
2022/03/25 04:12:08;;;;;;;64.43;34.72;;;2.00;99.90;;;;;;5052375;28;20029;-74
2022/03/25 04:14:35;;;;;;;66.80;33.85;;;2.00;99.90;;;;;;5034001;28;20033;-75
2022/03/25 04:17:01;;;;;;;62.75;35.10;;;2.00;99.90;;;;;;5034552;28;20021;-76
2022/03/25 04:19:26;;;;;;;65.75;35.22;;;2.00;99.90;;;;;;5033715;28;20075;-75
2022/03/25 04:21:52;;;;;;;70.78;34.72;;;2.00;99.90;;;;;;5052655;28;20024;-74
2022/03/25 04:24:17;;;;;;;71.40;36.75;;;2.00;99.90;;;;;;5051538;28;20016;-76
2022/03/25 04:26:43;;;;;;;72.55;37.05;;;2.00;99.90;;;;;;5033420;28;20027;-75
2022/03/25 04:29:09;;;;;;;73.53;38.20;;;2.10;99.90;;;;;;5050498;28;20064;-75
2022/03/25 04:31:34;;;;;;;67.53;36.85;;;2.10;99.90;;;;;;5033644;28;20035;-76
2022/03/25 04:34:00;;;;;;;71.20;37.45;;;2.10;99.90;;;;;;5051561;28;20029;-77
2022/03/25 04:36:25;;;;;;;68.47;36.42;;;2.20;99.90;;;;;;5052174;28;20038;-77
2022/03/25 04:38:51;;;;;;;62.83;33.75;;;2.20;99.90;;;;;;5034507;28;20025;-77
2022/03/25 04:41:17;;;;;;;66.47;35.03;;;2.20;99.90;;;;;;5037084;28;20143;-77
2022/03/25 04:43:43;;;;;;;79.68;39.28;;;2.20;99.90;;;;;;5034564;28;20040;-77
2022/03/25 04:46:08;;;;;;;76.32;39.05;;;2.30;99.90;;;;;;5034301;28;20024;-76
2022/03/25 04:48:34;;;;;;;74.88;39.75;;;2.40;99.90;;;;;;5033554;28;20025;-75
2022/03/25 04:51:00;;;;;;;78.18;39.90;;;2.40;99.90;;;;;;5051515;28;20070;-75
2022/03/25 04:53:26;;;;;;;66.60;37.15;;;2.50;99.90;;;;;;5033539;28;20056;-77
2022/03/25 04:55:54;;;;;;;72.38;37.55;;;2.50;99.90;;;;;;5033494;28;20025;-76
2022/03/25 04:58:20;;;;;;;70.25;35.75;;;2.50;99.90;;;;;;5032733;28;20028;-76
2022/03/25 05:00:46;;;;;;;66.38;36.88;;;2.50;99.90;;;;;;5051161;28;20025;-76
2022/03/25 05:03:11;;;;;;;66.75;36.90;;;2.40;99.90;;;;;;5033664;28;20385;-77
2022/03/25 05:05:37;;;;;;;71.25;37.90;;;2.30;99.90;;;;;;5054894;28;20025;-76
2022/03/25 05:08:03;;;;;;;69.20;36.50;;;2.30;99.90;;;;;;5067384;28;20096;-75
2022/03/25 05:10:29;;;;;;;67.68;35.50;;;2.30;99.90;;;;;;5066941;28;20104;-75
2022/03/25 05:12:55;;;;;;;68.78;35.78;;;2.30;99.90;;;;;;5040275;28;20056;-76
2022/03/25 05:15:20;;;;;;;67.25;34.30;;;2.30;99.90;;;;;;5055565;28;20021;-77
2022/03/25 05:17:51;;;;;;;70.90;35.72;;;2.30;99.90;;;;;;5033633;28;20017;-75
2022/03/25 05:20:19;;;;;;;74.88;37.45;;;2.30;99.90;;;;;;5051466;28;20021;-76
2022/03/25 05:22:45;;;;;;;72.88;36.65;;;2.30;99.90;;;;;;5033692;28;20040;-76
2022/03/25 05:25:11;;;;;;;67.50;35.22;;;2.30;99.90;;;;;;5034716;28;20121;-76
2022/03/25 05:27:55;;;;;;;73.15;38.58;;;2.20;99.90;;;;;;5034108;28;20071;-77
2022/03/25 05:30:24;;;;;;;69.93;35.28;;;2.30;99.90;;;;;;5051490;28;20024;-76
2022/03/25 05:32:50;;;;;;;68.30;35.00;;;2.30;99.90;;;;;;5052047;28;20053;-75
2022/03/25 05:35:17;;;;;;;67.97;36.10;;;2.30;99.90;;;;;;5033527;28;20025;-77
2022/03/25 05:37:43;;;;;;;70.35;36.40;;;2.30;99.90;;;;;;5033680;28;20021;-74
2022/03/25 05:40:10;;;;;;;74.53;37.38;;;2.30;99.90;;;;;;5054135;28;20036;-75
2022/03/25 05:42:37;;;;;;;74.95;37.50;;;2.30;99.90;;;;;;5042044;28;20025;-75
2022/03/25 05:45:06;;;;;;;67.82;34.85;;;2.30;99.90;;;;;;5029397;28;20025;-74
2022/03/25 05:47:32;;;;;;;70.53;34.67;;;2.30;99.90;;;;;;5043239;28;20404;-75
2022/03/25 05:49:57;;;;;;;66.90;36.38;;;2.30;99.90;;;;;;5061934;28;20032;-75
2022/03/25 05:52:24;;;;;;;68.60;35.25;;;2.30;99.90;;;;;;5044800;28;20103;-75
2022/03/25 05:54:50;;;;;;;68.80;35.70;;;2.40;99.90;;;;;;5043619;28;20456;-75
2022/03/25 05:57:16;;;;;;;68.57;34.47;;;2.40;99.90;;;;;;5045129;28;20078;-74
2022/03/25 05:59:41;;;;;;;81.63;37.58;;;2.50;99.90;;;;;;5059941;28;20477;-74
2022/03/25 06:02:08;;;;;;;78.28;36.50;;;2.60;99.90;;;;;;5063481;28;20096;-74
2022/03/25 06:04:34;;;;;;;74.20;36.35;;;2.70;99.90;;;;;;5050060;28;20021;-76
2022/03/25 06:06:59;;;;;;;71.38;35.97;;;2.80;99.90;;;;;;5044491;28;20050;-77
2022/03/25 06:09:25;;;;;;;70.50;35.28;;;2.90;99.90;;;;;;5036914;28;20078;-75
2022/03/25 06:11:51;;;;;;;71.40;34.58;;;3.00;99.90;;;;;;5037195;28;20025;-78
2022/03/25 06:14:17;;;;;;;73.00;37.22;;;3.20;99.90;;;;;;5036506;28;20496;-75
2022/03/25 06:16:42;;;;;;;71.50;38.05;;;3.20;99.90;;;;;;5054351;28;20060;-76
2022/03/25 06:19:08;;;;;;;64.93;35.60;;;3.30;99.90;;;;;;5035589;28;20033;-75
2022/03/25 06:21:34;;;;;;;66.45;34.80;;;3.50;99.90;;;;;;5054266;28;20025;-77
2022/03/25 06:24:00;;;;;;;73.80;36.05;;;3.60;99.90;;;;;;5054212;28;20017;-75
2022/03/25 06:26:26;;;;;;;71.97;32.78;;;3.80;99.90;;;;;;5036089;28;20025;-75
2022/03/25 06:28:51;;;;;;;69.82;31.85;;;4.00;99.90;;;;;;5035716;28;20032;-75
2022/03/25 06:31:17;;;;;;;62.05;33.67;;;4.20;99.90;;;;;;5035870;28;20126;-74
2022/03/25 06:33:43;;;;;;;58.15;30.85;;;4.50;99.90;;;;;;5054277;28;20033;-76
2022/03/25 06:36:13;;;;;;;68.35;31.80;;;4.70;99.90;;;;;;5035936;28;20029;-76
2022/03/25 06:38:41;;;;;;;63.00;31.80;;;4.90;99.90;;;;;;5035644;28;20080;-76
2022/03/25 06:41:07;;;;;;;62.50;32.63;;;5.20;99.90;;;;;;5036352;28;20025;-75
2022/03/25 06:43:33;;;;;;;59.38;32.92;;;5.30;99.90;;;;;;5053911;28;20017;-77
2022/03/25 06:48:27;;;;;;;52.45;31.33;;;5.90;99.90;;;;;;5063753;22;20077;-76
2022/03/25 06:50:53;;;;;;;66.18;37.97;;;6.30;99.90;;;;;;5039493;28;20029;-78
2022/03/25 06:53:19;;;;;;;60.88;36.08;;;6.70;99.90;;;;;;5022556;28;20022;-79
2022/03/25 06:55:45;;;;;;;62.40;34.58;;;7.00;99.90;;;;;;5022746;28;20120;-77
2022/03/25 06:58:11;;;;;;;54.67;34.13;;;7.30;99.90;;;;;;5040214;28;20108;-78
2022/03/25 07:00:37;;;;;;;55.63;32.13;;;7.70;99.90;;;;;;5041102;28;20046;-78
2022/03/25 07:03:04;;;;;;;51.38;30.83;;;8.00;99.90;;;;;;5041564;28;20093;-78
2022/03/25 07:05:31;;;;;;;60.88;34.10;;;8.10;99.90;;;;;;5044156;28;20021;-78
2022/03/25 07:07:57;;;;;;;57.53;31.88;;;8.30;99.90;;;;;;5032596;28;20334;-78
2022/03/25 07:10:26;;;;;;;53.70;31.65;;;8.50;99.90;;;;;;5051940;28;20013;-77
2022/03/25 07:12:53;;;;;;;55.00;32.38;;;8.60;99.90;;;;;;5033106;28;20028;-80
2022/03/25 07:15:20;;;;;;;60.65;34.33;;;8.70;99.90;;;;;;5032146;28;20060;-78
2022/03/25 07:17:46;;;;;;;59.33;33.17;;;8.80;99.90;;;;;;5025967;28;20036;-76
2022/03/25 07:20:14;;;;;;;58.85;32.30;;;9.00;99.90;;;;;;5042003;28;20034;-78
2022/03/25 07:22:44;;;;;;;65.53;33.72;;;9.10;99.90;;;;;;5044159;28;20380;-77
2022/03/25 07:25:11;;;;;;;71.05;35.70;;;9.30;99.90;;;;;;5046551;28;20032;-78
2022/03/25 07:27:37;;;;;;;68.07;33.88;;;9.50;99.90;;;;;;5029144;28;20030;-77
2022/03/25 07:30:04;;;;;;;74.13;34.55;;;9.60;99.90;;;;;;5025508;28;20034;-78
2022/03/25 07:32:30;;;;;;;81.13;37.15;;;9.80;99.90;;;;;;5043845;28;20072;-78
2022/03/25 07:34:56;;;;;;;90.05;38.03;;;10.00;99.90;;;;;;5048324;28;20056;-78
2022/03/25 07:37:21;;;;;;;85.55;36.92;;;10.10;99.90;;;;;;5030104;28;20021;-77
2022/03/25 07:39:47;;;;;;;80.15;37.00;;;10.40;99.90;;;;;;5044387;28;20085;-78
2022/03/25 07:42:13;;;;;;;85.07;38.00;;;10.50;99.90;;;;;;5027275;28;20021;-80
2022/03/25 07:44:39;;;;;;;71.53;38.25;;;10.60;99.90;;;;;;5053896;28;20021;-77
2022/03/25 07:47:06;;;;;;;68.65;35.88;;;11.00;99.90;;;;;;5062062;28;20036;-78
2022/03/25 07:49:35;;;;;;;66.97;37.08;;;11.20;99.90;;;;;;5060829;28;20033;-78
2022/03/25 07:52:03;;;;;;;76.57;37.35;;;11.50;99.90;;;;;;5042912;28;20033;-78
2022/03/25 07:54:29;;;;;;;62.60;37.10;;;11.60;99.90;;;;;;5061275;28;20103;-77
2022/03/25 07:56:58;;;;;;;62.92;36.85;;;11.80;99.90;;;;;;5062682;28;20036;-77
2022/03/25 07:59:24;;;;;;;64.10;37.65;;;12.10;98.80;;;;;;5041639;28;20029;-78
2022/03/25 08:01:52;;;;;;;56.60;36.30;;;12.20;95.20;;;;;;5060421;28;20605;-78
2022/03/25 08:04:18;;;;;;;63.35;37.53;;;12.50;94.90;;;;;;5040628;28;20021;-76
2022/03/25 08:06:44;;;;;;;65.97;39.30;;;12.60;92.20;;;;;;5041191;28;20032;-78
2022/03/25 08:09:11;;;;;;;66.72;39.55;;;12.70;91.00;;;;;;5043486;28;20108;-77
2022/03/25 08:11:37;;;;;;;62.97;39.03;;;12.80;90.50;;;;;;5041465;28;20025;-75
2022/03/25 08:14:03;;;;;;;63.15;37.92;;;12.90;88.00;;;;;;5043557;28;20033;-79
2022/03/25 08:16:28;;;;;;;65.68;36.95;;;13.10;85.30;;;;;;5061162;28;20025;-77
2022/03/25 08:18:54;;;;;;;69.05;42.00;;;13.40;82.80;;;;;;5059131;28;20028;-78
2022/03/25 08:21:20;;;;;;;71.50;42.13;;;13.60;79.80;;;;;;5043598;28;20044;-79
2022/03/25 08:29:13;;;;;;;68.85;40.40;;;14.00;75.60;;;;;;5058077;28;20507;-77
2022/03/25 08:31:39;;;;;;;65.57;40.78;;;14.20;74.20;;;;;;5061600;28;20025;-77
2022/03/25 08:34:07;;;;;;;73.28;44.50;;;14.50;73.30;;;;;;5043101;28;20028;-77
2022/03/25 08:36:34;;;;;;;68.35;43.72;;;14.70;71.40;;;;;;5041558;28;20021;-77
2022/03/25 08:39:00;;;;;;;73.85;38.70;;;14.90;68.90;;;;;;5060148;28;20021;-78
2022/03/25 08:41:26;;;;;;;64.68;36.88;;;15.30;67.90;;;;;;5059845;28;20079;-77
2022/03/25 08:43:52;;;;;;;58.78;37.63;;;15.50;65.70;;;;;;5037223;28;20017;-77
2022/03/25 08:46:20;;;;;;;60.20;34.47;;;15.50;65.10;;;;;;5022158;28;20037;-77
2022/03/25 08:48:46;;;;;;;52.88;33.10;;;15.40;64.10;;;;;;5022866;28;20033;-78
2022/03/25 08:51:12;;;;;;;54.78;32.85;;;15.50;64.40;;;;;;5022824;28;20025;-78
2022/03/25 08:53:39;;;;;;;52.63;31.77;;;15.70;63.20;;;;;;5039655;28;20018;-77
2022/03/25 08:56:04;;;;;;;54.45;31.85;;;15.80;61.60;;;;;;5039688;28;20021;-78
2022/03/25 08:58:30;;;;;;;54.97;30.40;;;15.90;62.20;;;;;;5021221;28;20029;-76
2022/03/25 09:00:55;;;;;;;50.30;30.70;;;16.00;60.10;;;;;;5022840;28;20440;-78
2022/03/25 09:03:21;;;;;;;49.22;29.90;;;16.00;60.60;;;;;;5040467;28;20025;-80
2022/03/25 09:05:47;;;;;;;52.78;29.23;;;16.20;60.90;;;;;;5021658;28;20480;-78
2022/03/25 09:08:13;;;;;;;53.75;29.88;;;16.40;60.50;;;;;;5020590;28;20029;-77
2022/03/25 09:10:38;;;;;;;48.05;27.80;;;16.50;59.10;;;;;;5037599;28;20013;-77
2022/03/25 09:13:04;;;;;;;45.47;27.33;;;16.80;59.20;;;;;;5022191;28;20025;-78
2022/03/25 09:15:30;;;;;;;43.53;25.90;;;16.80;57.80;;;;;;5026119;28;20124;-77
2022/03/25 09:17:56;;;;;;;48.33;26.05;;;17.10;56.90;;;;;;5024725;28;20026;-75
2022/03/25 09:20:21;;;;;;;51.30;26.88;;;17.10;56.10;;;;;;5042562;28;20052;-77
2022/03/25 09:22:47;;;;;;;42.28;26.60;;;17.10;56.80;;;;;;5025224;28;20025;-76
2022/03/25 09:25:13;;;;;;;43.22;25.23;;;17.20;56.00;;;;;;5042616;28;20073;-78
2022/03/25 09:27:40;;;;;;;45.05;23.50;;;17.40;55.70;;;;;;5025523;28;20049;-79
2022/03/25 09:30:07;;;;;;;40.13;23.55;;;17.50;54.30;;;;;;5043172;28;20512;-77
2022/03/25 09:32:33;;;;;;;40.35;22.77;;;17.50;53.60;;;;;;5043381;28;20025;-75
2022/03/25 09:35:11;;;;;;;40.80;24.58;;;17.60;54.30;;;;;;5044594;28;20033;-79
2022/03/25 09:37:48;;;;;;;40.10;21.52;;;17.90;53.40;;;;;;5025830;28;20037;-77
2022/03/25 09:40:23;;;;;;;38.45;22.00;;;18.00;51.30;;;;;;5042824;28;20040;-77
2022/03/25 09:42:51;;;;;;;43.00;22.35;;;18.00;51.40;;;;;;5042398;28;20018;-77
2022/03/25 09:45:18;;;;;;;35.00;20.20;;;18.20;51.10;;;;;;5041874;28;20021;-76
2022/03/25 09:47:45;;;;;;;40.10;21.58;;;18.40;50.60;;;;;;5061655;28;20036;-77
2022/03/25 09:50:14;;;;;;;37.15;20.27;;;18.20;49.10;;;;;;5061920;28;20036;-76
2022/03/25 09:52:43;;;;;;;42.47;24.30;;;18.20;50.20;;;;;;5046108;28;20032;-79
2022/03/25 09:55:10;;;;;;;39.30;23.27;;;18.00;50.20;;;;;;5067138;28;20028;-78
2022/03/25 09:57:36;;;;;;;37.15;21.67;;;18.20;50.60;;;;;;5065369;28;20033;-77
2022/03/25 10:00:04;;;;;;;36.72;20.60;;;18.30;49.20;;;;;;5046846;28;20025;-77
2022/03/25 10:02:30;;;;;;;38.50;21.83;;;18.50;48.40;;;;;;5046222;28;20056;-76
2022/03/25 10:04:56;;;;;;;35.22;19.95;;;18.70;48.10;;;;;;5063338;28;20025;-79
2022/03/25 10:07:28;;;;;;;35.47;21.17;;;18.90;49.50;;;;;;5062522;28;20021;-78
2022/03/25 10:10:07;;;;;;;37.08;18.95;;;18.70;48.20;;;;;;5062891;28;20400;-77
2022/03/25 10:12:32;;;;;;;31.92;19.05;;;18.80;47.80;;;;;;5063114;28;20059;-79
2022/03/25 10:15:25;;;;;;;28.20;17.55;;;19.00;48.50;;;;;;5062509;28;20029;-78
2022/03/25 10:17:56;;;;;;;30.48;19.60;;;19.00;47.20;;;;;;5044415;28;20021;-78
2022/03/25 10:20:24;;;;;;;44.05;20.63;;;18.90;47.10;;;;;;5061203;28;20025;-76
2022/03/25 10:23:07;;;;;;;40.50;20.65;;;18.90;47.70;;;;;;5042714;28;20053;-76
2022/03/25 10:25:47;;;;;;;38.95;20.90;;;19.10;48.90;;;;;;5042810;28;20024;-77
2022/03/25 10:28:25;;;;;;;35.97;19.50;;;19.10;47.50;;;;;;5062508;28;20021;-77
2022/03/25 10:30:52;;;;;;;39.80;20.83;;;19.20;47.50;;;;;;5061114;28;20021;-78
2022/03/25 10:33:30;;;;;;;35.80;20.95;;;19.10;47.70;;;;;;5043182;28;20091;-77
2022/03/25 10:35:57;;;;;;;36.65;21.25;;;18.90;48.30;;;;;;5060604;28;20021;-77
2022/03/25 10:38:23;;;;;;;33.97;21.15;;;18.40;49.30;;;;;;5059894;28;20021;-76
2022/03/25 10:41:00;;;;;;;33.47;20.02;;;18.70;50.70;;;;;;5042207;28;20079;-75
2022/03/25 10:43:25;;;;;;;31.00;19.60;;;19.00;50.50;;;;;;5059125;28;20086;-77
2022/03/25 10:45:51;;;;;;;37.08;20.40;;;19.20;49.40;;;;;;5039407;28;20029;-78
2022/03/25 10:48:18;;;;;;;32.78;19.63;;;19.20;48.30;;;;;;5040688;28;20030;-80
2022/03/25 10:51:10;;;;;;;31.33;18.48;;;18.90;49.60;;;;;;5022974;28;20021;-77
2022/03/25 10:53:38;;;;;;;35.30;20.27;;;18.90;48.90;;;;;;5049386;28;20021;-77
2022/03/25 10:56:06;;;;;;;31.45;19.75;;;18.70;49.00;;;;;;5046875;28;20049;-77
2022/03/25 10:58:34;;;;;;;37.70;21.30;;;18.80;49.00;;;;;;5022093;28;20029;-77
2022/03/25 11:01:00;;;;;;;37.45;21.95;;;18.70;50.60;;;;;;5021369;28;20477;-76
2022/03/25 11:03:27;;;;;;;33.55;18.77;;;18.70;50.40;;;;;;5022578;28;20473;-79
2022/03/25 11:05:53;;;;;;;30.88;18.45;;;18.60;51.00;;;;;;5029265;28;20037;-79
2022/03/25 11:08:19;;;;;;;33.58;19.65;;;18.60;52.30;;;;;;5025075;28;20033;-78
2022/03/25 11:10:45;;;;;;;32.83;18.65;;;18.80;52.80;;;;;;5040667;28;20430;-78
2022/03/25 11:13:12;;;;;;;30.73;18.73;;;18.90;51.00;;;;;;5040903;28;20029;-78
2022/03/25 11:15:39;;;;;;;35.60;18.90;;;19.00;51.60;;;;;;5027739;28;20026;-77
2022/03/25 11:18:08;;;;;;;34.67;18.20;;;18.80;51.70;;;;;;5029999;28;20021;-77
2022/03/25 11:20:34;;;;;;;32.97;18.80;;;18.90;52.40;;;;;;5040892;28;20393;-77
2022/03/25 11:23:19;;;;;;;31.42;18.23;;;19.10;50.20;;;;;;5023475;28;20048;-80
2022/03/25 11:25:49;;;;;;;31.67;18.23;;;19.00;50.90;;;;;;5039660;28;20026;-78
2022/03/25 11:28:20;;;;;;;29.75;18.05;;;19.00;51.40;;;;;;5039878;28;20025;-78
2022/03/25 11:31:02;;;;;;;32.15;19.42;;;18.70;52.10;;;;;;5023073;28;20092;-77
2022/03/25 11:33:28;;;;;;;31.05;21.52;;;18.90;53.60;;;;;;5040553;28;20104;-77
2022/03/25 11:36:14;;;;;;;32.60;20.67;;;18.80;51.80;;;;;;5022312;28;20041;-79
2022/03/25 11:38:40;;;;;;;38.53;22.13;;;18.90;51.80;;;;;;5020127;28;20036;-78
2022/03/25 11:41:24;;;;;;;29.73;20.17;;;19.10;51.30;;;;;;5038946;28;20025;-78
2022/03/25 11:44:15;;;;;;;30.52;19.20;;;19.20;52.00;;;;;;5043364;28;20123;-77
2022/03/25 11:47:02;;;;;;;31.00;21.00;;;19.30;50.80;;;;;;5058325;28;20025;-79
2022/03/25 11:49:33;;;;;;;36.95;20.25;;;19.10;51.60;;;;;;5060699;28;20017;-79
2022/03/25 11:52:16;;;;;;;31.33;19.15;;;19.10;51.20;;;;;;5043399;28;20116;-77
2022/03/25 11:54:43;;;;;;;34.85;19.75;;;19.00;51.70;;;;;;5045234;28;20033;-77
2022/03/25 11:57:31;;;;;;;31.50;19.50;;;19.00;52.00;;;;;;5063031;28;20029;-78
2022/03/25 12:00:02;;;;;;;34.03;19.65;;;19.20;50.50;;;;;;5063209;28;20025;-80
2022/03/25 12:02:35;;;;;;;32.15;19.67;;;19.10;51.10;;;;;;5067006;28;20488;-79
2022/03/25 12:05:02;;;;;;;40.88;18.95;;;18.90;51.30;;;;;;5068830;28;20414;-79
2022/03/25 12:07:29;;;;;;;36.30;18.98;;;18.80;51.10;;;;;;5066638;28;20040;-77
2022/03/25 12:09:55;;;;;;;31.95;17.95;;;18.90;50.90;;;;;;5062696;28;20077;-76
2022/03/25 12:12:54;;;;;;;30.08;17.67;;;19.20;52.40;;;;;;5040275;28;20032;-78
2022/03/25 12:15:20;;;;;;;31.63;18.27;;;19.30;51.30;;;;;;5058805;28;20028;-77
2022/03/25 12:17:45;;;;;;;34.58;20.10;;;19.40;50.00;;;;;;5057323;28;20324;-76
2022/03/25 12:20:12;;;;;;;29.98;17.75;;;19.30;50.40;;;;;;5056851;28;20075;-77
2022/03/25 12:22:39;;;;;;;32.47;18.85;;;19.10;51.30;;;;;;5057745;28;20027;-76
2022/03/25 12:25:14;;;;;;;33.38;18.25;;;19.20;50.00;;;;;;5057792;28;20040;-79
2022/03/25 12:27:40;;;;;;;30.77;18.05;;;19.10;50.40;;;;;;5058384;28;20028;-77
2022/03/25 12:30:06;;;;;;;30.73;18.23;;;19.20;50.00;;;;;;5057802;28;20037;-77
2022/03/25 12:32:35;;;;;;;29.25;18.23;;;19.30;50.30;;;;;;5057960;28;20041;-77
2022/03/25 12:35:16;;;;;;;34.65;19.63;;;19.40;49.90;;;;;;5058084;28;20029;-78
2022/03/25 12:37:52;;;;;;;35.65;18.63;;;19.50;49.20;;;;;;5045280;28;20055;-76
2022/03/25 12:40:31;;;;;;;33.28;18.33;;;19.20;50.00;;;;;;5040293;28;20025;-78
2022/03/25 12:42:59;;;;;;;33.55;20.33;;;19.10;49.30;;;;;;5057693;28;20029;-77